Flight Track Log - Related Links

Times and Time Zones

All times are in EDT time to prevent confusion due to time zone crossing. See the N42HN flight status page for this flight to view local times or setup timezone preferences in your user account.

Time Position Orientation Groundspeed Altitude Reporting Facility
EDT Latitude Longitude Course Direction KTS MPH feet Rate Location/Type
Thu 12:42:07 PM 33.9667 -84.0167 270° West 193 222 2,700  Level Atlanta TRACON
Thu 12:43:07 PM 33.9667 -84.0833 270° West 216 249 5,000 1,150 Climbing Atlanta TRACON
Thu 12:44:07 PM 33.9333 -84.1333 231° Southwest 211 243 5,000 -50 Level Atlanta TRACON
Thu 12:45:07 PM 33.9000 -84.2000 239° Southwest 192 221 4,900  Descending Atlanta TRACON
Thu 12:46:07 PM 33.8833 -84.2500 248° West 198 228 5,000 50 Climbing Atlanta TRACON
Thu 12:47:07 PM 33.8500 -84.3167 239° Southwest 211 243 5,000 450 Level Atlanta TRACON
Thu 12:48:07 PM 33.8167 -84.3667 231° Southwest 214 246 5,900 500 Climbing Atlanta TRACON
Thu 12:49:07 PM 33.7500 -84.3833 192° South 271 312 6,000 500 Climbing Atlanta TRACON
Thu 12:50:07 PM 33.6667 -84.3833 180° South 282 325 6,900 2,263 Climbing Atlanta TRACON
Thu 12:51:01 PM 33.6000 -84.3833 180° South 295 339 10,300 3,000 Climbing Atlanta TRACON
Thu 12:51:33 PM 33.5578 -84.3828 179° South 298 343 11,200 1,696 Climbing Atlanta Center
Thu 12:52:33 PM 33.4722 -84.3875 183° South 309 356 12,900 2,400 Climbing Atlanta Center
Thu 12:53:33 PM 33.3722 -84.3944 183° South 351 404 16,000 3,050 Climbing Atlanta Center
Thu 12:54:33 PM 33.2761 -84.4017 184° South 356 410 19,000 2,600 Climbing Atlanta Center
Thu 12:55:33 PM 33.1800 -84.4011 180° South 351 404 21,200 1,950 Climbing Atlanta Center
Thu 12:56:33 PM 33.0736 -84.4008 180° South 368 423 22,900 1,700 Climbing Atlanta Center
Thu 12:57:33 PM 32.9650 -84.4003 180° South 384 442 24,600 1,800 Climbing Atlanta Center
Thu 12:58:33 PM 32.8439 -84.3972 179° South 389 448 26,500 2,150 Climbing Atlanta Center
Thu 12:59:33 PM 32.7292 -84.3969 180° South 402 463 28,900 2,050 Climbing Atlanta Center
Thu 01:00:33 PM 32.6228 -84.3914 177° South 397 457 30,600 1,300 Climbing Atlanta Center
Thu 01:01:33 PM 32.5100 -84.3911 180° South 397 457 31,500 850 Climbing Atlanta Center
Thu 01:02:33 PM 32.3931 -84.3931 181° South 410 472 32,300 1,034 Climbing Atlanta Center
Thu 01:04:27 PM 32.1744 -84.3872 179° South 427 491 34,500 1,172 Climbing Jacksonville Center
Thu 01:05:27 PM 32.0553 -84.3878 180° South 432 497 35,700 1,100 Climbing Jacksonville Center
Thu 01:06:27 PM 31.9364 -84.3858 179° South 432 497 36,700 650 Climbing Jacksonville Center
Thu 01:07:27 PM 31.8153 -84.3864 180° South 432 497 37,000 150 Climbing Jacksonville Center
Thu 01:08:27 PM 31.6922 -84.3819 178° South 438 504 37,000  Level Jacksonville Center
Thu 01:09:27 PM 31.5503 -84.3822 180° South 456 525 37,000  Level Jacksonville Center
Thu 01:10:27 PM 31.4208 -84.3825 180° South 456 525 37,000 -750 Level Jacksonville Center
Thu 01:11:27 PM 31.2914 -84.3806 179° South 456 525 35,500 -1,500 Descending Jacksonville Center
Thu 01:12:27 PM 31.1556 -84.3783 179° South 466 536 34,000 -750 Descending Jacksonville Center
Thu 01:13:27 PM 31.0261 -84.3764 179° South 471 542 34,000 -200 Level Jacksonville Center
Thu 01:14:27 PM 30.9119 -84.3283 160° South 457 526 33,600 -1,300 Descending Jacksonville Center
Thu 01:15:27 PM 30.7956 -84.2736 158° South 446 513 31,400 -1,300 Descending Jacksonville Center
Thu 01:16:27 PM 30.6814 -84.2139 156° South 446 513 31,000 -200 Descending Jacksonville Center
Thu 01:17:27 PM 30.5631 -84.1567 157° South 451 519 31,000  Level Jacksonville Center
Thu 01:18:27 PM 30.4467 -84.0997 157° South 451 519 31,000  Level Jacksonville Center
Thu 01:19:27 PM 30.3239 -84.0428 158° South 456 525 31,000  Level Jacksonville Center
Thu 01:20:27 PM 30.2056 -83.9839 157° South 461 531 31,000  Level Jacksonville Center
Thu 01:21:27 PM 30.0847 -83.9272 158° South 466 536 31,000 -750 Level Jacksonville Center
Thu 01:22:27 PM 29.9664 -83.8683 157° South 472 543 29,500 -1,650 Descending Jacksonville Center
Thu 01:23:27 PM 29.8478 -83.8122 158° South 472 543 27,700 -1,900 Descending Jacksonville Center
Thu 01:24:27 PM 29.7269 -83.7561 158° South 472 543 25,700 -1,750 Descending Jacksonville Center
Thu 01:25:27 PM 29.6083 -83.6953 156° South 472 543 24,200 -850 Descending Jacksonville Center
Thu 01:26:27 PM 29.4897 -83.6417 159° South 472 543 24,000 -100 Descending Jacksonville Center
Thu 01:27:27 PM 29.3753 -83.5861 157° South 466 536 24,000  Level Jacksonville Center
Thu 01:28:27 PM 29.2608 -83.5328 158° South 455 524 24,000 -100 Level Jacksonville Center
Thu 01:29:27 PM 29.1525 -83.4728 154° Southeast 445 512 23,800 -950 Descending Jacksonville Center
Thu 01:30:27 PM 29.0464 -83.3983 148° Southeast 440 506 22,100 -1,800 Descending Jacksonville Center
Thu 01:31:27 PM 28.9339 -83.3314 152° Southeast 451 519 20,200 -1,750 Descending Jacksonville Center
Thu 01:32:27 PM 28.8256 -83.2600 150° Southeast 451 519 18,600 -1,550 Descending Jacksonville Center
Thu 01:33:27 PM 28.7214 -83.1956 152° Southeast 443 510 17,100 -1,697 Descending Jacksonville Center
Thu 01:34:59 PM 28.5833 -83.1167 153° Southeast 350 403 14,300 -1,618 Descending Tampa TRACON
Thu 01:35:59 PM 28.5000 -83.0667 152° Southeast 340 391 13,000 -684 Descending Tampa TRACON
Thu 01:36:53 PM 28.4333 -83.0167 147° Southeast 305 351 13,000 -53 Level Tampa TRACON
Thu 01:37:53 PM 28.3667 -82.9667 147° Southeast 297 342 12,900 -2,762 Descending Tampa TRACON
Thu 01:38:59 PM 28.3000 -82.9167 147° Southeast 288 331 7,200 -3,450 Descending Tampa TRACON
Thu 01:39:53 PM 28.2667 -82.8333 114° Southeast 274 315 6,000 -850 Descending Tampa TRACON
Thu 01:40:59 PM 28.2333 -82.7667 120° Southeast 257 296 5,500 -942 Descending Tampa TRACON
Thu 01:41:54 PM 28.2000 -82.7000 120° Southeast 257 296 4,100 -1,238 Descending Tampa TRACON
Thu 01:43:05 PM 28.1500 -82.6167 124° Southeast 246 283 2,900 -1,095 Descending Tampa TRACON
Thu 01:44:11 PM 28.1167 -82.5667 127° Southeast 221 254 1,600 -1,182 Descending Tampa TRACON

Login

Don't have an account? Register now (free) for customized features, flight alerts, and more!